Time;durP1;ratioP1;P1;durP2;ratioP2;P2;SDS_P1;SDS_P2;PMS_P1;PMS_P2;Temp;Humidity;BMP_temperature;BMP_pressure;BME280_temperature;BME280_humidity;BME280_pressure;Samples;Min_cycle;Max_cycle;Signal;HPM_P1;HPM_P2
2020/12/19 00:00:08;;;;;;;63.87;19.80;;;;;;;4.16;82.74;100387.72;1763214;80;21261;-82
2020/12/19 00:02:41;;;;;;;58.40;19.25;;;;;;;4.18;82.65;100382.17;1775986;80;21185;-82
2020/12/19 00:05:08;;;;;;;53.08;18.82;;;;;;;4.23;82.86;100385.27;1776242;80;21255;-82
2020/12/19 00:07:36;;;;;;;66.07;20.48;;;;;;;4.23;82.93;100387.84;1784217;80;21247;-83
2020/12/19 00:10:04;;;;;;;59.33;18.90;;;;;;;4.24;82.91;100385.70;1802254;79;21126;-82
2020/12/19 00:12:32;;;;;;;64.42;19.00;;;;;;;4.27;82.85;100381.91;1813702;78;21277;-82
2020/12/19 00:14:59;;;;;;;51.20;17.15;;;;;;;4.31;82.93;100390.16;1768534;80;21310;-82
2020/12/19 00:17:26;;;;;;;58.28;18.35;;;;;;;4.28;82.69;100387.11;1778762;80;21250;-83
2020/12/19 00:19:54;;;;;;;57.53;22.13;;;;;;;4.29;82.81;100387.97;1788002;78;21128;-82
2020/12/19 00:22:21;;;;;;;62.70;22.70;;;;;;;4.30;82.69;100382.86;1788504;80;21239;-82
2020/12/19 00:24:49;;;;;;;59.85;23.25;;;;;;;4.32;82.63;100390.63;1764340;80;21309;-83
2020/12/19 00:27:16;;;;;;;58.83;22.65;;;;;;;4.26;82.73;100393.03;1780594;78;21282;-83
2020/12/19 00:29:45;;;;;;;57.40;22.15;;;;;;;4.25;82.79;100396.46;1754852;81;21159;-82
2020/12/19 00:32:12;;;;;;;63.95;23.22;;;;;;;4.26;82.63;100402.05;1753833;81;21117;-83
2020/12/19 00:34:41;;;;;;;62.95;22.73;;;;;;;4.25;82.66;100398.61;1771619;80;21137;-82
2020/12/19 00:37:09;;;;;;;62.75;22.73;;;;;;;4.21;82.94;100392.09;1757356;81;21117;-83
2020/12/19 00:39:36;;;;;;;62.03;23.07;;;;;;;4.19;82.98;100395.91;1772789;80;21113;-84
2020/12/19 00:42:04;;;;;;;56.42;19.37;;;;;;;4.17;83.34;100389.86;1758511;81;21310;-83
2020/12/19 00:44:31;;;;;;;56.83;18.40;;;;;;;4.18;82.79;100396.34;1768667;81;21326;-83
2020/12/19 00:46:58;;;;;;;67.42;21.77;;;;;;;4.15;82.10;100391.11;1770741;79;21321;-83
2020/12/19 00:49:25;;;;;;;66.90;20.00;;;;;;;4.07;83.52;100391.36;1743422;79;21164;-87
2020/12/19 00:51:53;;;;;;;55.52;19.05;;;;;;;4.10;83.19;100387.98;1739991;80;21167;-87
2020/12/19 00:54:20;;;;;;;53.80;17.87;;;;;;;4.11;83.39;100390.59;1704366;82;21212;-86
2020/12/19 00:56:47;;;;;;;60.65;18.32;;;;;;;4.14;83.26;100389.38;1724891;81;21141;-89
2020/12/19 00:59:15;;;;;;;57.45;19.98;;;;;;;4.17;83.35;100389.86;1738989;82;21172;-87
2020/12/19 01:01:42;;;;;;;59.65;20.55;;;;;;;4.18;83.46;100392.47;1753495;80;21623;-89
2020/12/19 01:04:09;;;;;;;59.67;18.40;;;;;;;4.21;83.53;100393.37;1722554;83;21180;-88
2020/12/19 01:06:37;;;;;;;52.93;18.52;;;;;;;4.24;83.33;100392.14;1723267;82;21164;-87
2020/12/19 01:09:05;;;;;;;60.08;19.35;;;;;;;4.28;83.31;100397.83;1719388;81;21173;-88
2020/12/19 01:11:37;;;;;;;59.30;21.33;;;;;;;4.30;83.12;100393.58;1748934;80;21252;-81
2020/12/19 01:14:05;;;;;;;70.25;23.00;;;;;;;4.29;83.12;100383.67;1737742;81;21250;-84
2020/12/19 01:16:33;;;;;;;62.98;20.77;;;;;;;4.31;82.96;100381.14;1742853;82;21240;-83
2020/12/19 01:19:04;;;;;;;64.30;21.42;;;;;;;4.34;82.93;100379.51;1762200;80;21285;-84
2020/12/19 01:21:33;;;;;;;57.65;21.17;;;;;;;4.36;82.92;100388.56;1730287;81;21353;-84
2020/12/19 01:24:00;;;;;;;60.17;22.45;;;;;;;4.38;82.86;100383.02;1753877;80;21120;-83
2020/12/19 01:26:28;;;;;;;63.98;21.30;;;;;;;4.38;82.88;100377.88;1704184;83;21153;-82
2020/12/19 01:28:55;;;;;;;68.42;22.52;;;;;;;4.36;82.53;100376.55;1733113;81;21327;-82
2020/12/19 01:31:23;;;;;;;61.35;22.13;;;;;;;4.32;82.85;100373.89;1725287;83;21271;-83
2020/12/19 01:33:51;;;;;;;62.53;22.73;;;;;;;4.30;82.54;100374.27;1746521;80;21302;-82
2020/12/19 01:36:22;;;;;;;58.13;22.17;;;;;;;4.28;82.88;100370.80;1702486;83;21161;-82
2020/12/19 01:38:51;;;;;;;57.33;20.65;;;;;;;4.28;82.83;100369.52;1754699;82;21225;-82
2020/12/19 01:41:22;;;;;;;66.50;23.02;;;;;;;4.28;82.89;100360.50;1750571;80;21239;-83
2020/12/19 01:43:58;;;;;;;54.65;21.40;;;;;;;4.24;83.00;100356.98;1731237;82;21271;-84
2020/12/19 01:46:56;;;;;;;63.00;22.25;;;;;;;4.25;82.99;100359.14;1729021;83;21106;-81
2020/12/19 01:49:28;;;;;;;58.30;18.35;;;;;;;4.24;82.96;100358.67;1751742;80;21266;-82
2020/12/19 01:52:00;;;;;;;44.10;16.27;;;;;;;4.15;83.76;100360.22;1802078;79;21183;-84
2020/12/19 01:54:29;;;;;;;53.05;19.15;;;;;;;4.15;83.76;100360.22;1801844;79;21465;-83
2020/12/19 01:56:59;;;;;;;54.00;19.10;;;;;;;4.14;83.78;100358.92;1795092;78;21234;-84
2020/12/19 01:59:29;;;;;;;55.60;18.73;;;;;;;4.17;83.73;100362.83;1780024;79;21124;-84
2020/12/19 02:02:03;;;;;;;54.40;19.32;;;;;;;4.17;83.56;100363.69;1783191;79;21155;-84
2020/12/19 02:04:31;;;;;;;52.35;18.12;;;;;;;4.12;83.93;100356.31;1770707;80;21116;-85
2020/12/19 02:07:00;;;;;;;58.02;18.55;;;;;;;4.16;83.81;100363.26;1772405;78;21310;-82
2020/12/19 02:09:32;;;;;;;56.20;18.77;;;;;;;4.16;83.77;100363.26;1788627;79;21198;-82
2020/12/19 02:12:00;;;;;;;56.48;19.65;;;;;;;4.13;84.29;100357.17;1758164;81;21308;-83
2020/12/19 02:14:30;;;;;;;50.67;17.57;;;;;;;4.16;84.35;100368.41;1809075;78;21144;-84
2020/12/19 02:17:08;;;;;;;56.15;19.85;;;;;;;4.21;84.38;100360.77;1825757;77;22265;-86
2020/12/19 02:19:37;;;;;;;55.03;20.20;;;;;;;4.22;83.98;100369.35;1791190;78;21261;-84
2020/12/19 02:22:07;;;;;;;60.23;20.72;;;;;;;4.24;83.76;100367.68;1811997;78;21269;-83
2020/12/19 02:24:34;;;;;;;56.75;19.57;;;;;;;4.22;83.68;100375.79;1815809;78;21800;-81
2020/12/19 02:27:03;;;;;;;52.75;19.40;;;;;;;4.19;83.42;100373.60;1809921;78;21595;-83
2020/12/19 02:29:32;;;;;;;54.90;21.62;;;;;;;4.15;83.69;100370.94;1798723;77;21252;-83
2020/12/19 02:32:02;;;;;;;64.55;20.62;;;;;;;4.10;84.33;100369.95;1811651;78;21709;-83
2020/12/19 02:34:29;;;;;;;59.45;21.70;;;;;;;4.07;84.77;100375.06;1811147;77;21138;-83
2020/12/19 02:36:57;;;;;;;59.08;19.85;;;;;;;4.08;84.01;100364.80;1801111;77;21162;-83
2020/12/19 02:39:25;;;;;;;54.40;19.07;;;;;;;4.04;84.35;100363.39;1812820;78;21126;-83
2020/12/19 02:41:52;;;;;;;53.83;18.95;;;;;;;4.03;84.60;100359.97;1803966;77;22421;-84
2020/12/19 02:44:20;;;;;;;57.65;20.05;;;;;;;4.04;84.13;100364.69;1814243;77;21149;-83
2020/12/19 02:46:48;;;;;;;49.48;17.15;;;;;;;3.99;84.80;100360.30;1807150;78;21269;-81
2020/12/19 02:49:17;;;;;;;51.45;18.62;;;;;;;3.97;84.59;100363.69;1806127;78;21115;-83
2020/12/19 02:51:44;;;;;;;57.73;18.65;;;;;;;3.96;84.71;100360.69;1753389;81;21168;-83
2020/12/19 02:54:12;;;;;;;50.03;16.82;;;;;;;3.95;84.78;100356.36;1818820;78;21130;-83
2020/12/19 02:56:40;;;;;;;57.75;18.25;;;;;;;3.97;84.77;100357.26;1805476;79;21320;-83
2020/12/19 02:59:07;;;;;;;53.55;17.12;;;;;;;;;;1815336;78;21517;-83
2020/12/19 03:01:34;;;;;;;49.55;16.80;;;;;;;4.00;84.98;100356.05;1830268;77;21224;-83
2020/12/19 03:04:02;;;;;;;46.73;17.65;;;;;;;4.02;84.80;100356.95;1823596;77;21583;-83
2020/12/19 03:06:34;;;;;;;49.93;16.12;;;;;;;4.08;84.63;100359.66;1801732;77;21276;-83
2020/12/19 03:09:03;;;;;;;51.60;17.27;;;;;;;4.09;84.67;100365.66;1794326;79;21303;-83
2020/12/19 03:11:30;;;;;;;52.05;17.57;;;;;;;4.13;84.51;100363.17;1797752;78;21213;-82
2020/12/19 03:13:58;;;;;;;48.33;16.12;;;;;;;4.07;84.85;100366.05;1796229;78;21510;-83
2020/12/19 03:16:26;;;;;;;52.40;15.98;;;;;;;4.13;84.56;100361.03;1805833;78;21160;-83
2020/12/19 03:18:53;;;;;;;52.25;16.42;;;;;;;4.11;84.58;100362.28;1807714;78;21133;-83
2020/12/19 03:21:21;;;;;;;50.98;17.35;;;;;;;4.13;84.56;100369.61;1797634;77;21228;-83
2020/12/19 03:23:48;;;;;;;52.08;19.45;;;;;;;4.16;84.53;100364.55;1806826;77;21272;-83
2020/12/19 03:26:17;;;;;;;51.95;19.23;;;;;;;4.18;84.54;100360.73;1824340;78;21277;-82
2020/12/19 03:28:44;;;;;;;51.92;18.92;;;;;;;4.18;84.43;100365.45;1810658;78;21264;-84
2020/12/19 03:31:12;;;;;;;51.42;18.70;;;;;;;4.20;84.23;100370.64;1799138;78;21284;-81
2020/12/19 03:33:39;;;;;;;56.08;19.25;;;;;;;4.19;84.04;100366.30;1806154;78;21150;-83
2020/12/19 03:36:06;;;;;;;47.15;18.73;;;;;;;4.18;84.36;100378.74;1820915;78;21344;-82
2020/12/19 03:38:34;;;;;;;52.35;19.35;;;;;;;4.15;84.03;100370.52;1802582;78;21166;-82
2020/12/19 03:41:01;;;;;;;53.23;16.30;;;;;;;4.12;84.33;100374.75;1799147;78;21580;-82
2020/12/19 03:43:28;;;;;;;55.60;17.02;;;;;;;4.11;83.98;100373.86;1796816;78;22017;-82
2020/12/19 03:45:56;;;;;;;46.70;15.30;;;;;;;4.08;83.87;100368.66;1803379;78;21256;-82
2020/12/19 03:48:24;;;;;;;50.85;15.70;;;;;;;4.08;84.11;100369.95;1794335;78;21150;-82
2020/12/19 03:50:52;;;;;;;50.83;16.42;;;;;;;4.07;84.14;100368.63;1798137;78;21240;-83
2020/12/19 03:53:20;;;;;;;54.00;17.30;;;;;;;4.07;84.47;100365.63;1805984;78;21343;-83
2020/12/19 03:55:47;;;;;;;57.33;18.07;;;;;;;4.08;84.49;100367.38;1808803;77;21307;-82
2020/12/19 03:58:15;;;;;;;38.48;15.75;;;;;;;4.10;84.50;100366.10;1815147;78;21674;-83
2020/12/19 04:00:42;;;;;;;51.73;17.07;;;;;;;4.13;84.40;100360.61;1813080;78;21257;-83
2020/12/19 04:03:09;;;;;;;53.17;17.48;;;;;;;4.17;84.33;100366.27;1767408;80;21276;-83
2020/12/19 04:05:37;;;;;;;49.53;17.27;;;;;;;4.14;84.30;100362.36;1798406;78;21270;-83
2020/12/19 04:08:04;;;;;;;62.88;17.95;;;;;;;4.22;84.05;100360.34;1822379;78;21257;-83
2020/12/19 04:10:32;;;;;;;50.17;16.27;;;;;;;4.19;84.10;100363.30;1813480;78;21228;-84
2020/12/19 04:12:59;;;;;;;54.10;19.35;;;;;;;4.22;84.23;100368.06;1818554;78;21256;-84
2020/12/19 04:15:27;;;;;;;54.13;17.70;;;;;;;4.23;84.15;100364.67;1794967;77;21288;-83
2020/12/19 04:17:55;;;;;;;52.20;18.00;;;;;;;4.21;84.18;100360.77;1822746;78;21291;-82
2020/12/19 04:20:22;;;;;;;51.10;18.37;;;;;;;4.24;83.76;100360.85;1838938;77;21280;-82
2020/12/19 04:22:50;;;;;;;53.60;19.52;;;;;;;4.21;83.80;100357.34;1832885;77;21236;-84
2020/12/19 04:25:18;;;;;;;53.65;18.90;;;;;;;4.22;84.10;100360.34;1840912;77;21296;-82
2020/12/19 04:27:45;;;;;;;55.12;21.12;;;;;;;4.19;83.86;100360.73;1850063;77;21273;-83
2020/12/19 04:30:12;;;;;;;60.48;19.75;;;;;;;4.19;84.01;100359.88;1843573;77;21229;-84
2020/12/19 04:32:40;;;;;;;58.45;20.65;;;;;;;4.19;84.27;100356.88;1827908;77;21272;-83
2020/12/19 04:35:09;;;;;;;53.38;20.48;;;;;;;4.18;84.19;100357.72;1848052;77;21460;-83
2020/12/19 04:37:36;;;;;;;54.63;20.72;;;;;;;4.19;84.01;100359.88;1841451;77;21150;-83
2020/12/19 04:40:05;;;;;;;53.92;19.05;;;;;;;4.18;84.10;100360.30;1838158;76;21275;-82
2020/12/19 04:42:35;;;;;;;59.13;20.10;;;;;;;4.15;84.37;100364.51;1855050;76;21255;-82
2020/12/19 04:45:06;;;;;;;58.83;21.70;;;;;;;4.16;83.86;100354.25;1820476;77;21293;-84
2020/12/19 04:47:34;;;;;;;54.30;18.98;;;;;;;4.14;83.84;100354.64;1834245;77;21264;-83
2020/12/19 04:50:02;;;;;;;55.05;22.37;;;;;;;4.12;84.15;100351.16;1845115;77;21268;-82
2020/12/19 04:52:30;;;;;;;58.42;18.15;;;;;;;4.12;83.63;100351.16;1841596;77;21098;-83
2020/12/19 04:54:58;;;;;;;52.10;18.85;;;;;;;4.11;83.97;100349.41;1830060;76;21150;-88
2020/12/19 04:57:26;;;;;;;54.10;17.32;;;;;;;4.12;84.07;100354.16;1845379;77;22040;-89
2020/12/19 04:59:53;;;;;;;52.53;16.82;;;;;;;4.11;84.07;100350.70;1834844;77;21149;-88
2020/12/19 05:02:20;;;;;;;57.78;18.10;;;;;;;4.13;84.39;100350.31;1841083;77;21169;-89
2020/12/19 05:04:50;;;;;;;54.05;17.17;;;;;;;4.18;83.98;100344.00;1834981;76;21141;-87
2020/12/19 05:07:19;;;;;;;48.65;17.10;;;;;;;4.21;83.95;100347.04;1832956;77;21146;-83
2020/12/19 05:09:46;;;;;;;59.50;19.20;;;;;;;4.25;84.01;100343.69;1816045;77;21287;-82
2020/12/19 05:12:14;;;;;;;49.23;17.55;;;;;;;4.27;84.04;100340.73;1844635;77;21304;-83
2020/12/19 05:14:41;;;;;;;51.50;18.20;;;;;;;4.30;84.05;100338.23;1840331;77;21258;-83
2020/12/19 05:17:09;;;;;;;56.55;17.77;;;;;;;4.33;84.02;100340.42;1848887;77;21154;-83
2020/12/19 05:19:37;;;;;;;55.25;19.82;;;;;;;4.36;83.97;100344.78;1849921;77;21162;-83
2020/12/19 05:22:05;;;;;;;58.02;21.75;;;;;;;4.42;83.93;100340.15;1836213;77;21252;-83
2020/12/19 05:27:09;;;;;;;66.92;27.58;;;;;;;4.49;83.65;100344.17;1823906;77;28242;-90
2020/12/19 05:29:37;;;;;;;66.17;24.50;;;;;;;4.56;83.43;100336.16;1806840;79;21165;-85
2020/12/19 05:32:05;;;;;;;59.13;23.42;;;;;;;4.56;83.26;100335.73;1803670;79;21307;-82
2020/12/19 05:34:33;;;;;;;55.52;21.40;;;;;;;4.56;83.24;100343.89;1807378;79;21146;-88
2020/12/19 05:37:01;;;;;;;58.78;21.60;;;;;;;4.53;83.20;100342.10;1806590;79;21641;-89
2020/12/19 05:39:29;;;;;;;58.90;23.62;;;;;;;4.53;83.18;100345.11;1803328;79;21217;-81
2020/12/19 05:41:56;;;;;;;61.90;22.62;;;;;;;4.48;82.98;100337.73;1809085;79;21173;-82
2020/12/19 05:44:24;;;;;;;58.92;22.82;;;;;;;4.43;83.23;100332.89;1812816;79;21447;-84
2020/12/19 05:46:51;;;;;;;61.70;22.73;;;;;;;4.42;83.34;100337.18;1741684;82;21310;-83
2020/12/19 05:49:21;;;;;;;58.58;21.65;;;;;;;4.36;83.41;100344.78;1738030;82;21307;-83
2020/12/19 05:51:52;;;;;;;66.57;22.52;;;;;;;4.32;83.51;100341.70;1814064;79;21282;-83
2020/12/19 05:54:23;;;;;;;63.15;23.83;;;;;;;4.31;83.01;100352.83;1750052;82;21302;-81
2020/12/19 05:56:53;;;;;;;64.47;23.95;;;;;;;4.26;83.23;100349.27;1736708;82;22283;-83
2020/12/19 05:59:21;;;;;;;58.02;20.12;;;;;;;4.17;83.99;100353.40;1743651;82;21324;-83
2020/12/19 06:01:50;;;;;;;62.33;18.98;;;;;;;4.15;83.73;100352.50;1743170;82;21190;-82
2020/12/19 06:04:19;;;;;;;66.97;21.73;;;;;;;4.14;83.77;100350.78;1739180;82;21297;-83
2020/12/19 06:06:48;;;;;;;60.58;19.82;;;;;;;4.17;83.96;100356.39;1810698;79;21304;-83
2020/12/19 06:09:17;;;;;;;55.83;20.05;;;;;;;4.10;83.98;100340.36;1802882;79;21276;-83
2020/12/19 06:12:06;;;;;;;55.30;20.65;;;;;;;4.21;84.17;100345.75;1813756;79;21697;-85
2020/12/19 06:14:45;;;;;;;53.05;19.45;;;;;;;4.19;84.22;100347.86;1813630;79;21272;-82
2020/12/19 06:17:25;;;;;;;50.73;18.20;;;;;;;4.24;84.21;100357.38;1800653;79;21268;-83
2020/12/19 06:20:03;;;;;;;52.90;18.42;;;;;;;4.25;84.63;100355.27;1856187;75;22496;-88
2020/12/19 06:22:31;;;;;;;60.17;20.00;;;;;;;4.18;84.52;100359.44;1831378;77;21381;-82
2020/12/19 06:24:59;;;;;;;57.45;20.02;;;;;;;4.23;84.34;100359.52;1835522;76;21281;-84
2020/12/19 06:27:35;;;;;;;58.87;18.98;;;;;;;4.23;84.46;100358.23;1797065;78;21373;-83
2020/12/19 06:30:03;;;;;;;59.38;19.57;;;;;;;4.24;84.45;100362.53;1780704;80;21306;-83
2020/12/19 06:32:32;;;;;;;61.80;21.37;;;;;;;4.22;84.54;100361.63;1781934;79;21249;-83
2020/12/19 06:35:11;;;;;;;49.75;19.98;;;;;;;4.28;84.24;100359.22;1777942;80;21428;-82
2020/12/19 06:37:43;;;;;;;60.52;21.50;;;;;;;4.23;84.31;100354.38;1772627;80;21264;-82
2020/12/19 06:40:20;;;;;;;65.72;21.80;;;;;;;4.19;83.94;100348.29;1774681;80;21211;-84
2020/12/19 06:43:08;;;;;;;58.80;21.82;;;;;;;4.17;84.32;100359.83;1770914;80;21232;-84
2020/12/19 06:45:36;;;;;;;60.10;22.42;;;;;;;4.15;84.32;100356.78;1792307;80;21316;-83
2020/12/19 06:48:27;;;;;;;64.62;22.15;;;;;;;4.14;83.88;100363.64;1781050;80;21252;-83
2020/12/19 06:51:07;;;;;;;54.95;17.45;;;;;;;4.12;84.73;100367.89;1801265;77;22943;-87
2020/12/19 06:53:34;;;;;;;62.55;19.90;;;;;;;4.07;84.39;100372.48;1791142;78;21151;-87
2020/12/19 06:56:08;;;;;;;60.60;18.95;;;;;;;4.07;83.96;100367.34;1775681;80;21219;-82
2020/12/19 06:58:36;;;;;;;63.38;19.57;;;;;;;4.03;84.70;100366.39;1747989;81;21342;-81
2020/12/19 07:01:26;;;;;;;58.80;19.77;;;;;;;4.05;84.54;100376.73;1744617;81;21792;-82
2020/12/19 07:03:54;;;;;;;54.30;20.52;;;;;;;4.03;85.29;100379.27;1733888;81;21300;-83
2020/12/19 07:06:22;;;;;;;63.70;19.52;;;;;;;4.10;84.77;100378.97;1725783;81;21287;-82
2020/12/19 07:08:51;;;;;;;54.77;19.10;;;;;;;4.09;85.20;100385.83;1776745;80;21161;-81
2020/12/19 07:11:40;;;;;;;70.03;20.75;;;;;;;4.13;85.05;100381.20;1756643;81;21125;-82
2020/12/19 07:14:15;;;;;;;64.17;21.90;;;;;;;4.27;84.89;100386.64;1798246;78;22857;-86
2020/12/19 07:16:50;;;;;;;62.38;23.07;;;;;;;4.23;84.79;100389.98;1767981;80;21171;-87
2020/12/19 07:19:27;;;;;;;62.93;21.60;;;;;;;4.27;84.80;100396.08;1775712;80;21240;-83
2020/12/19 07:21:58;;;;;;;60.10;22.42;;;;;;;4.28;84.49;100393.97;1778163;80;21267;-83
2020/12/19 07:24:25;;;;;;;60.83;22.22;;;;;;;4.30;84.08;100397.45;1773118;80;21255;-83
2020/12/19 07:26:53;;;;;;;65.97;22.67;;;;;;;4.25;84.25;100387.03;1771437;80;21142;-82
2020/12/19 07:29:23;;;;;;;57.23;20.75;;;;;;;4.27;84.07;100392.22;1771382;80;21307;-84
2020/12/19 07:31:56;;;;;;;61.20;18.65;;;;;;;4.24;84.44;100387.88;1768188;80;21303;-83
2020/12/19 07:34:23;;;;;;;56.73;18.95;;;;;;;4.24;84.26;100396.00;1768242;80;21776;-82
2020/12/19 07:36:52;;;;;;;59.25;18.52;;;;;;;4.21;84.43;100391.66;1774322;80;21070;-82
2020/12/19 07:39:22;;;;;;;55.90;18.73;;;;;;;4.23;84.09;100394.28;1767720;80;21260;-81
2020/12/19 07:42:06;;;;;;;58.00;19.32;;;;;;;4.24;84.57;100394.31;1771260;80;21742;-82
2020/12/19 07:44:35;;;;;;;50.67;17.23;;;;;;;4.30;84.39;100393.16;1775128;80;21137;-82
2020/12/19 07:47:09;;;;;;;65.22;19.02;;;;;;;4.30;84.52;100397.02;1771608;80;21248;-82
2020/12/19 07:49:40;;;;;;;;;;;;;;;4.33;84.48;100398.78;1777121;80;21327;-81
2020/12/19 07:52:24;;;;;;;60.60;20.00;;;;;;;4.31;84.64;100392.73;1775425;80;20304;-83
2020/12/19 07:55:04;;;;;;;62.85;19.12;;;;;;;4.32;84.61;100394.05;1778336;80;21165;-82
2020/12/19 07:57:33;;;;;;;63.87;21.80;;;;;;;4.40;84.59;100396.80;1769113;80;21598;-87
2020/12/19 08:00:03;;;;;;;65.20;23.42;;;;;;;4.42;84.43;100396.41;1770394;80;21233;-83
2020/12/19 08:02:37;;;;;;;58.33;22.75;;;;;;;4.48;84.36;100396.53;1777407;80;21280;-83
2020/12/19 08:05:05;;;;;;;59.23;22.02;;;;;;;4.47;84.36;100397.78;1773193;80;21282;-82
2020/12/19 08:07:33;;;;;;;63.45;22.52;;;;;;;4.49;84.10;100394.39;1770583;80;21263;-83
2020/12/19 08:10:07;;;;;;;55.78;21.45;;;;;;;4.52;84.08;100397.04;1772723;80;21272;-84
2020/12/19 08:12:36;;;;;;;59.80;22.07;;;;;;;4.52;83.99;100398.33;1775840;80;21340;-83
2020/12/19 08:15:10;;;;;;;59.48;22.45;;;;;;;4.55;83.34;100398.80;1753841;81;21265;-82
2020/12/19 08:17:50;;;;;;;70.32;22.52;;;;;;;4.48;83.64;100409.41;1755645;79;21154;-82
2020/12/19 08:20:32;;;;;;;60.98;20.82;;;;;;;4.41;84.03;100403.66;1736013;81;22351;-83
2020/12/19 08:23:03;;;;;;;68.25;20.70;;;;;;;4.40;83.78;100414.81;1730836;81;21134;-83
2020/12/19 08:25:30;;;;;;;60.12;20.95;;;;;;;4.42;83.67;100409.67;1766322;81;21305;-83
2020/12/19 08:27:58;;;;;;;63.68;20.10;;;;;;;4.40;83.79;100409.67;1755546;81;21155;-82
2020/12/19 08:30:30;;;;;;;58.45;19.82;;;;;;;4.42;83.86;100408.00;1756953;81;21237;-83
2020/12/19 08:33:07;;;;;;;56.88;20.00;;;;;;;4.40;83.90;100405.80;1750760;81;21253;-83
2020/12/19 08:35:43;;;;;;;52.67;20.17;;;;;;;4.44;84.08;100408.03;1755310;80;21151;-81
2020/12/19 08:38:26;;;;;;;52.98;19.30;;;;;;;4.52;84.11;100406.48;1826579;75;23536;-83
2020/12/19 08:40:58;;;;;;;56.58;19.20;;;;;;;4.51;83.81;100412.03;1836180;77;21097;-81
2020/12/19 08:43:35;;;;;;;55.83;20.82;;;;;;;4.54;83.64;100403.09;1828779;77;21294;-81
2020/12/19 08:46:12;;;;;;;62.85;21.55;;;;;;;4.63;83.75;100402.82;1830094;77;21228;-82
2020/12/19 08:48:42;;;;;;;59.30;20.82;;;;;;;4.66;83.60;100394.73;1834619;77;21145;-81
2020/12/19 08:51:14;;;;;;;60.30;22.27;;;;;;;4.71;83.62;100393.53;1832903;77;21314;-82
2020/12/19 08:53:41;;;;;;;56.05;22.58;;;;;;;4.77;83.45;100396.22;1835616;77;21235;-83
2020/12/19 08:56:15;;;;;;;65.15;22.73;;;;;;;4.81;82.73;100399.30;1837928;77;21326;-83
2020/12/19 08:58:55;;;;;;;60.25;21.48;;;;;;;4.76;82.75;100391.92;1837092;77;21285;-82
2020/12/19 09:01:23;;;;;;;54.00;20.15;;;;;;;4.81;82.56;100395.44;1830446;77;21136;-82
2020/12/19 09:03:53;;;;;;;64.20;21.97;;;;;;;4.76;82.83;100388.92;1840417;77;21254;-82
2020/12/19 09:06:20;;;;;;;61.13;22.75;;;;;;;4.77;82.65;100392.36;1827609;77;21711;-83
2020/12/19 09:08:49;;;;;;;65.95;23.83;;;;;;;4.76;82.86;100388.92;1844199;77;21287;-81
2020/12/19 09:11:26;;;;;;;54.05;18.77;;;;;;;4.77;82.87;100383.34;1839756;75;21659;-83
2020/12/19 09:14:10;;;;;;;55.90;19.85;;;;;;;4.78;82.61;100383.37;1836862;77;21237;-82
2020/12/19 09:16:50;;;;;;;57.03;19.07;;;;;;;4.78;82.79;100386.38;1776127;80;21151;-83
2020/12/19 09:19:19;;;;;;;54.38;19.00;;;;;;;4.81;82.69;100385.13;1777766;81;21267;-82
2020/12/19 09:21:59;;;;;;;50.17;18.90;;;;;;;4.86;82.68;100382.23;1794831;79;21306;-83
2020/12/19 09:24:27;;;;;;;58.55;19.60;;;;;;;4.87;82.81;100380.52;1784884;79;21283;-83
2020/12/19 09:26:55;;;;;;;59.67;19.85;;;;;;;4.89;82.87;100377.13;1782386;78;21275;-83
2020/12/19 09:29:23;;;;;;;56.75;19.15;;;;;;;4.96;82.96;100372.55;1788771;79;21251;-82
2020/12/19 09:31:50;;;;;;;60.73;19.25;;;;;;;5.03;82.85;100363.63;1785849;79;21255;-83
2020/12/19 09:34:17;;;;;;;50.48;19.67;;;;;;;5.08;82.41;100362.87;1782775;79;21287;-83
2020/12/19 09:36:45;;;;;;;55.08;22.13;;;;;;;5.16;82.68;100365.59;1797426;79;21236;-83
2020/12/19 09:39:13;;;;;;;505.52;173.57;;;;;;;5.24;82.78;100357.98;1795110;79;21312;-82
2020/12/19 09:41:41;;;;;;;116.05;48.83;;;;;;;5.22;82.04;100350.22;1798783;79;21282;-81
2020/12/19 09:44:09;;;;;;;76.67;30.70;;;;;;;5.29;82.37;100352.07;1787703;79;21125;-82
2020/12/19 09:46:37;;;;;;;68.70;25.48;;;;;;;5.31;81.72;100345.63;1787966;79;21164;-83
2020/12/19 09:49:04;;;;;;;69.95;25.30;;;;;;;5.37;81.87;100349.19;1796283;79;21141;-83
2020/12/19 09:51:32;;;;;;;63.83;23.80;;;;;;;5.42;81.53;100347.10;1786552;79;21125;-83
2020/12/19 09:53:59;;;;;;;60.38;24.23;;;;;;;5.40;80.75;100346.21;1788814;79;21342;-82
2020/12/19 09:56:27;;;;;;;72.40;28.95;;;;;;;5.41;80.53;100356.95;1780506;81;21303;-82
2020/12/19 09:58:55;;;;;;;69.55;26.73;;;;;;;5.36;80.96;100348.73;1796895;79;21259;-83
2020/12/19 10:01:22;;;;;;;59.63;20.70;;;;;;;5.37;80.66;100349.59;1790496;79;21311;-83
2020/12/19 10:03:49;;;;;;;62.53;20.05;;;;;;;5.32;80.49;100351.24;1794527;79;22386;-82
2020/12/19 10:06:17;;;;;;;78.20;26.20;;;;;;;5.24;80.75;100348.53;1803264;79;21295;-83
2020/12/19 10:08:44;;;;;;;72.00;24.65;;;;;;;5.28;80.97;100354.61;1791503;79;21294;-82
2020/12/19 10:11:11;;;;;;;65.92;21.90;;;;;;;5.33;81.22;100341.36;1791583;79;21323;-83
2020/12/19 10:13:39;;;;;;;58.58;20.12;;;;;;;5.37;80.90;100341.85;1786046;79;21272;-82
2020/12/19 10:16:06;;;;;;;57.40;21.15;;;;;;;5.34;81.41;100336.23;1797468;79;21247;-82
2020/12/19 10:18:33;;;;;;;65.52;23.25;;;;;;;5.44;81.38;100331.23;1793579;79;21156;-82
2020/12/19 10:21:07;;;;;;;71.20;24.92;;;;;;;5.47;81.46;100327.39;1784585;79;21141;-82
2020/12/19 10:23:34;;;;;;;74.55;25.77;;;;;;;5.51;81.71;100329.17;1789216;79;21295;-81
2020/12/19 10:26:02;;;;;;;64.53;25.75;;;;;;;5.53;80.31;100333.53;1792089;79;21239;-83
2020/12/19 10:28:30;;;;;;;61.65;24.50;;;;;;;5.60;81.08;100322.88;1781308;81;21299;-83
2020/12/19 10:30:57;;;;;;;70.00;25.55;;;;;;;5.61;79.59;100323.73;1782015;81;21307;-84
2020/12/19 10:33:25;;;;;;;57.53;22.82;;;;;;;5.64;80.52;100322.50;1800452;79;21101;-83
2020/12/19 10:35:54;;;;;;;62.98;23.55;;;;;;;5.63;80.39;100314.30;1789941;79;21740;-83
2020/12/19 10:38:21;;;;;;;62.62;21.55;;;;;;;5.66;80.24;100313.92;1801922;79;21280;-81
2020/12/19 10:40:50;;;;;;;59.67;21.55;;;;;;;5.63;79.82;100309.14;1778715;78;21149;-84
2020/12/19 10:43:18;;;;;;;66.35;25.02;;;;;;;5.63;79.96;100308.73;1783065;79;21161;-83
2020/12/19 10:45:46;;;;;;;70.95;26.37;;;;;;;5.64;79.99;100304.44;1788703;79;21605;-82
2020/12/19 10:48:14;;;;;;;71.33;24.98;;;;;;;5.63;79.87;100307.45;1789978;79;21272;-83
2020/12/19 10:50:44;;;;;;;56.80;20.02;;;;;;;5.62;79.87;100305.70;1785162;79;21302;-83
2020/12/19 10:53:12;;;;;;;53.92;19.37;;;;;;;5.56;79.65;100299.16;1779552;79;21271;-83
2020/12/19 10:55:39;;;;;;;55.00;18.67;;;;;;;5.56;79.58;100297.44;1780367;79;21263;-83
2020/12/19 10:58:07;;;;;;;47.20;18.40;;;;;;;5.63;80.06;100298.81;1798389;77;21673;-84
2020/12/19 11:00:34;;;;;;;53.35;19.20;;;;;;;5.66;80.20;100300.17;1791249;79;21217;-83
2020/12/19 11:03:01;;;;;;;45.78;18.65;;;;;;;5.69;79.96;100298.91;1783892;79;21239;-83
2020/12/19 11:05:29;;;;;;;50.92;18.27;;;;;;;5.76;79.77;100298.16;1796688;79;21315;-83
2020/12/19 11:07:56;;;;;;;60.28;23.42;;;;;;;5.83;79.10;100293.93;1799369;79;21287;-85
2020/12/19 11:10:24;;;;;;;63.05;23.73;;;;;;;5.85;79.24;100295.71;1788338;79;21300;-82
2020/12/19 11:12:51;;;;;;;54.65;22.22;;;;;;;5.87;79.49;100295.30;1789036;79;21259;-83
2020/12/19 11:15:19;;;;;;;54.50;21.68;;;;;;;5.91;79.07;100300.09;1819243;77;21249;-84
2020/12/19 11:17:46;;;;;;;53.87;20.05;;;;;;;5.96;79.36;100304.91;1789876;78;21302;-83
2020/12/19 11:20:14;;;;;;;53.95;21.90;;;;;;;5.99;79.12;100294.63;1792393;79;21268;-84
2020/12/19 11:22:41;;;;;;;53.20;21.73;;;;;;;6.01;78.78;100298.10;1801694;76;21110;-84
2020/12/19 11:25:09;;;;;;;56.33;24.02;;;;;;;6.00;78.79;100291.62;1797985;77;21264;-84
2020/12/19 11:27:36;;;;;;;68.40;26.65;;;;;;;5.96;78.51;100294.14;1780457;79;21291;-84
2020/12/19 11:30:04;;;;;;;112.17;40.45;;;;;;;5.96;77.97;100298.02;1786727;79;21280;-82